sensor_id;sensor_type;location;lat;lon;timestamp;pressure;altitude;pressure_sealevel;temperature;humidity
33913;BME280;20200;52.084;5.224;2022-12-18T00:02:36;148049.0;;;-3.0;97.02
33913;BME280;20200;52.084;5.224;2022-12-18T00:04:18;148033.0;;;-3.06;96.71
33913;BME280;20200;52.084;5.224;2022-12-18T00:05:59;148028.0;;;-3.08;97.06
33913;BME280;20200;52.084;5.224;2022-12-18T00:07:36;148030.0;;;-3.07;97.03
33913;BME280;20200;52.084;5.224;2022-12-18T00:10:48;148021.0;;;-3.11;97.04
33913;BME280;20200;52.084;5.224;2022-12-18T00:12:24;148039.0;;;-3.03;97.15
33913;BME280;20200;52.084;5.224;2022-12-18T00:15:38;148071.0;;;-2.91;96.72
33913;BME280;20200;52.084;5.224;2022-12-18T00:17:15;148047.0;;;-3.0;96.47
33913;BME280;20200;52.084;5.224;2022-12-18T00:18:52;148066.0;;;-2.93;96.34
33913;BME280;20200;52.084;5.224;2022-12-18T00:20:32;148042.0;;;-3.02;96.56
33913;BME280;20200;52.084;5.224;2022-12-18T00:22:12;148033.0;;;-3.06;96.32
33913;BME280;20200;52.084;5.224;2022-12-18T00:25:26;148012.0;;;-3.14;96.3
33913;BME280;20200;52.084;5.224;2022-12-18T00:27:03;147955.0;;;-3.38;96.75
33913;BME280;20200;52.084;5.224;2022-12-18T00:28:39;147980.0;;;-3.27;96.94
33913;BME280;20200;52.084;5.224;2022-12-18T00:31:52;147986.0;;;-3.25;96.79
33913;BME280;20200;52.084;5.224;2022-12-18T00:33:29;148016.0;;;-3.13;96.83
33913;BME280;20200;52.084;5.224;2022-12-18T00:35:07;148014.0;;;-3.14;96.5
33913;BME280;20200;52.084;5.224;2022-12-18T00:36:43;148004.0;;;-3.18;96.55
33913;BME280;20200;52.084;5.224;2022-12-18T00:39:55;148009.0;;;-3.15;96.55
33913;BME280;20200;52.084;5.224;2022-12-18T00:41:32;148045.0;;;-3.01;96.36
33913;BME280;20200;52.084;5.224;2022-12-18T00:43:08;148018.0;;;-3.12;96.0
33913;BME280;20200;52.084;5.224;2022-12-18T00:46:21;148004.0;;;-3.18;96.25
33913;BME280;20200;52.084;5.224;2022-12-18T00:47:57;147951.0;;;-3.39;96.29
33913;BME280;20200;52.084;5.224;2022-12-18T00:49:33;147927.0;;;-3.49;96.96
33913;BME280;20200;52.084;5.224;2022-12-18T00:52:46;147953.0;;;-3.38;97.0
33913;BME280;20200;52.084;5.224;2022-12-18T00:54:22;147984.0;;;-3.26;96.76
33913;BME280;20200;52.084;5.224;2022-12-18T00:55:59;147955.0;;;-3.38;96.91
33913;BME280;20200;52.084;5.224;2022-12-18T00:57:35;147964.0;;;-3.34;97.16
33913;BME280;20200;52.084;5.224;2022-12-18T01:00:48;147996.0;;;-3.21;96.96
33913;BME280;20200;52.084;5.224;2022-12-18T01:02:24;148000.0;;;-3.19;96.62
33913;BME280;20200;52.084;5.224;2022-12-18T01:04:01;148012.0;;;-3.14;96.46
33913;BME280;20200;52.084;5.224;2022-12-18T01:07:15;147997.0;;;-3.21;96.5
33913;BME280;20200;52.084;5.224;2022-12-18T01:08:51;148003.0;;;-3.18;96.02
33913;BME280;20200;52.084;5.224;2022-12-18T01:10:28;148008.0;;;-3.16;96.02
33913;BME280;20200;52.084;5.224;2022-12-18T01:13:41;147980.0;;;-3.27;96.18
33913;BME280;20200;52.084;5.224;2022-12-18T01:15:20;147986.0;;;-3.25;96.24
33913;BME280;20200;52.084;5.224;2022-12-18T01:16:55;147970.0;;;-3.31;96.15
33913;BME280;20200;52.084;5.224;2022-12-18T01:18:31;147928.0;;;-3.48;96.61
33913;BME280;20200;52.084;5.224;2022-12-18T01:21:47;147880.0;;;-3.68;97.43
33913;BME280;20200;52.084;5.224;2022-12-18T01:23:23;147914.0;;;-3.54;97.64
33913;BME280;20200;52.084;5.224;2022-12-18T01:25:04;147925.0;;;-3.5;97.43
33913;BME280;20200;52.084;5.224;2022-12-18T01:28:16;147936.0;;;-3.45;97.03
33913;BME280;20200;52.084;5.224;2022-12-18T01:29:53;147948.0;;;-3.4;97.01
33913;BME280;20200;52.084;5.224;2022-12-18T01:31:33;147957.0;;;-3.37;96.66
33913;BME280;20200;52.084;5.224;2022-12-18T01:33:09;147986.0;;;-3.25;96.27
33913;BME280;20200;52.084;5.224;2022-12-18T01:36:23;147960.0;;;-3.35;96.36
33913;BME280;20200;52.084;5.224;2022-12-18T01:38:01;147948.0;;;-3.4;96.63
33913;BME280;20200;52.084;5.224;2022-12-18T01:39:37;147923.0;;;-3.5;96.6
33913;BME280;20200;52.084;5.224;2022-12-18T01:42:55;147896.0;;;-3.61;97.03
33913;BME280;20200;52.084;5.224;2022-12-18T01:45:02;147904.0;;;-3.58;97.12
33913;BME280;20200;52.084;5.224;2022-12-18T01:46:57;147914.0;;;-3.54;97.03
33913;BME280;20200;52.084;5.224;2022-12-18T01:48:33;147893.0;;;-3.62;97.02
33913;BME280;20200;52.084;5.224;2022-12-18T01:50:11;147907.0;;;-3.57;97.05
33913;BME280;20200;52.084;5.224;2022-12-18T01:53:28;147904.0;;;-3.58;97.02
33913;BME280;20200;52.084;5.224;2022-12-18T01:55:05;147939.0;;;-3.44;96.73
33913;BME280;20200;52.084;5.224;2022-12-18T01:56:42;147940.0;;;-3.44;96.48
33913;BME280;20200;52.084;5.224;2022-12-18T01:58:20;147911.0;;;-3.55;96.38
33913;BME280;20200;52.084;5.224;2022-12-18T02:01:43;147958.0;;;-3.36;96.27
33913;BME280;20200;52.084;5.224;2022-12-18T02:03:19;147951.0;;;-3.39;96.08
33913;BME280;20200;52.084;5.224;2022-12-18T02:04:56;147936.0;;;-3.45;96.09
33913;BME280;20200;52.084;5.224;2022-12-18T02:08:20;147944.0;;;-3.42;95.84
33913;BME280;20200;52.084;5.224;2022-12-18T02:10:05;147934.0;;;-3.46;95.57
33913;BME280;20200;52.084;5.224;2022-12-18T02:11:51;147943.0;;;-3.42;95.39
33913;BME280;20200;52.084;5.224;2022-12-18T02:13:37;147922.0;;;-3.51;95.06
33913;BME280;20200;52.084;5.224;2022-12-18T02:15:24;147917.0;;;-3.53;94.82
33913;BME280;20200;52.084;5.224;2022-12-18T02:17:06;147916.0;;;-3.53;94.6
33913;BME280;20200;52.084;5.224;2022-12-18T02:20:33;147909.0;;;-3.56;94.38
33913;BME280;20200;52.084;5.224;2022-12-18T02:22:23;147891.0;;;-3.63;94.29
33913;BME280;20200;52.084;5.224;2022-12-18T02:24:17;147906.0;;;-3.57;94.25
33913;BME280;20200;52.084;5.224;2022-12-18T02:26:06;147895.0;;;-3.62;94.0
33913;BME280;20200;52.084;5.224;2022-12-18T02:27:49;147889.0;;;-3.64;93.81
33913;BME280;20200;52.084;5.224;2022-12-18T02:31:13;147868.0;;;-3.73;93.77
33913;BME280;20200;52.084;5.224;2022-12-18T02:32:52;147872.0;;;-3.71;93.56
33913;BME280;20200;52.084;5.224;2022-12-18T02:34:33;147902.0;;;-3.59;93.22
33913;BME280;20200;52.084;5.224;2022-12-18T02:36:13;147881.0;;;-3.67;92.77
33913;BME280;20200;52.084;5.224;2022-12-18T02:39:30;147863.0;;;-3.75;92.94
33913;BME280;20200;52.084;5.224;2022-12-18T02:41:09;147857.0;;;-3.77;92.84
33913;BME280;20200;52.084;5.224;2022-12-18T02:42:46;147863.0;;;-3.75;92.8
33913;BME280;20200;52.084;5.224;2022-12-18T02:44:22;147839.0;;;-3.84;92.7
33913;BME280;20200;52.084;5.224;2022-12-18T02:47:56;147843.0;;;-3.83;92.56
33913;BME280;20200;52.084;5.224;2022-12-18T02:49:36;147843.0;;;-3.83;92.36
33913;BME280;20200;52.084;5.224;2022-12-18T02:51:26;147860.0;;;-3.76;91.98
33913;BME280;20200;52.084;5.224;2022-12-18T02:53:10;147857.0;;;-3.77;91.59
33913;BME280;20200;52.084;5.224;2022-12-18T02:54:57;147842.0;;;-3.83;91.62
33913;BME280;20200;52.084;5.224;2022-12-18T02:58:30;147829.0;;;-3.88;91.64
33913;BME280;20200;52.084;5.224;2022-12-18T03:00:12;147820.0;;;-3.92;91.88
33913;BME280;20200;52.084;5.224;2022-12-18T03:01:55;147812.0;;;-3.95;91.95
33913;BME280;20200;52.084;5.224;2022-12-18T03:03:37;147803.0;;;-3.99;92.11
33913;BME280;20200;52.084;5.224;2022-12-18T03:05:18;147798.0;;;-4.01;92.05
33913;BME280;20200;52.084;5.224;2022-12-18T03:08:44;147818.0;;;-3.93;91.87
33913;BME280;20200;52.084;5.224;2022-12-18T03:10:26;147807.0;;;-3.97;91.77
33913;BME280;20200;52.084;5.224;2022-12-18T03:12:09;147793.0;;;-4.03;91.48
33913;BME280;20200;52.084;5.224;2022-12-18T03:13:53;147804.0;;;-3.98;91.31
33913;BME280;20200;52.084;5.224;2022-12-18T03:17:16;147786.0;;;-4.06;91.15
33913;BME280;20200;52.084;5.224;2022-12-18T03:18:57;147801.0;;;-3.99;91.06
33913;BME280;20200;52.084;5.224;2022-12-18T03:20:39;147778.0;;;-4.09;91.26
33913;BME280;20200;52.084;5.224;2022-12-18T03:22:20;147775.0;;;-4.09;91.11
33913;BME280;20200;52.084;5.224;2022-12-18T03:23:59;147767.0;;;-4.13;91.05
33913;BME280;20200;52.084;5.224;2022-12-18T03:27:20;147766.0;;;-4.13;90.88
33913;BME280;20200;52.084;5.224;2022-12-18T03:29:02;147744.0;;;-4.23;91.16
33913;BME280;20200;52.084;5.224;2022-12-18T03:30:44;147746.0;;;-4.22;91.28
33913;BME280;20200;52.084;5.224;2022-12-18T03:32:26;147762.0;;;-4.15;91.25
33913;BME280;20200;52.084;5.224;2022-12-18T03:35:49;147745.0;;;-4.22;91.46
33913;BME280;20200;52.084;5.224;2022-12-18T03:37:26;147760.0;;;-4.16;90.91
33913;BME280;20200;52.084;5.224;2022-12-18T03:39:02;147737.0;;;-4.25;91.18
33913;BME280;20200;52.084;5.224;2022-12-18T03:42:40;147725.0;;;-4.3;91.53
33913;BME280;20200;52.084;5.224;2022-12-18T03:44:28;147710.0;;;-4.36;91.63
33913;BME280;20200;52.084;5.224;2022-12-18T03:46:14;147718.0;;;-4.33;91.69
33913;BME280;20200;52.084;5.224;2022-12-18T03:47:58;147703.0;;;-4.38;91.97
33913;BME280;20200;52.084;5.224;2022-12-18T03:49:41;147682.0;;;-4.48;92.23
33913;BME280;20200;52.084;5.224;2022-12-18T03:51:25;147694.0;;;-4.43;92.16
33913;BME280;20200;52.084;5.224;2022-12-18T03:54:56;147712.0;;;-4.36;91.62
33913;BME280;20200;52.084;5.224;2022-12-18T03:56:38;147694.0;;;-4.43;91.66
33913;BME280;20200;52.084;5.224;2022-12-18T03:58:19;147691.0;;;-4.44;91.47
33913;BME280;20200;52.084;5.224;2022-12-18T03:59:58;147696.0;;;-4.42;91.19
33913;BME280;20200;52.084;5.224;2022-12-18T04:01:40;147698.0;;;-4.41;91.38
33913;BME280;20200;52.084;5.224;2022-12-18T04:04:59;147676.0;;;-4.5;91.15
33913;BME280;20200;52.084;5.224;2022-12-18T04:06:38;147674.0;;;-4.51;91.26
33913;BME280;20200;52.084;5.224;2022-12-18T04:08:16;147669.0;;;-4.53;91.41
33913;BME280;20200;52.084;5.224;2022-12-18T04:11:32;147677.0;;;-4.5;91.1
33913;BME280;20200;52.084;5.224;2022-12-18T04:13:09;147656.0;;;-4.58;91.3
33913;BME280;20200;52.084;5.224;2022-12-18T04:14:45;147656.0;;;-4.58;91.0
33913;BME280;20200;52.084;5.224;2022-12-18T04:16:21;147672.0;;;-4.52;90.88
33913;BME280;20200;52.084;5.224;2022-12-18T04:19:33;147650.0;;;-4.6;91.04
33913;BME280;20200;52.084;5.224;2022-12-18T04:21:09;147660.0;;;-4.56;90.82
33913;BME280;20200;52.084;5.224;2022-12-18T04:22:47;147625.0;;;-4.71;91.3
33913;BME280;20200;52.084;5.224;2022-12-18T04:26:00;147616.0;;;-4.74;91.61
33913;BME280;20200;52.084;5.224;2022-12-18T04:27:36;147629.0;;;-4.69;91.66
33913;BME280;20200;52.084;5.224;2022-12-18T04:29:12;147637.0;;;-4.66;91.46
33913;BME280;20200;52.084;5.224;2022-12-18T04:32:24;147637.0;;;-4.66;91.31
33913;BME280;20200;52.084;5.224;2022-12-18T04:34:01;147627.0;;;-4.7;91.29
33913;BME280;20200;52.084;5.224;2022-12-18T04:35:37;147630.0;;;-4.69;91.47
33913;BME280;20200;52.084;5.224;2022-12-18T04:37:13;147643.0;;;-4.63;91.38
33913;BME280;20200;52.084;5.224;2022-12-18T04:40:25;147643.0;;;-4.63;91.17
33913;BME280;20200;52.084;5.224;2022-12-18T04:42:02;147623.0;;;-4.71;91.35
33913;BME280;20200;52.084;5.224;2022-12-18T04:43:38;147588.0;;;-4.86;91.64
33913;BME280;20200;52.084;5.224;2022-12-18T04:46:50;147608.0;;;-4.77;91.78
33913;BME280;20200;52.084;5.224;2022-12-18T04:48:26;147591.0;;;-4.84;92.02
33913;BME280;20200;52.084;5.224;2022-12-18T04:50:03;147606.0;;;-4.78;91.88
33913;BME280;20200;52.084;5.224;2022-12-18T04:53:16;147618.0;;;-4.74;91.56
33913;BME280;20200;52.084;5.224;2022-12-18T04:54:52;147621.0;;;-4.72;91.36
33913;BME280;20200;52.084;5.224;2022-12-18T04:56:30;147613.0;;;-4.76;91.45
33913;BME280;20200;52.084;5.224;2022-12-18T04:58:07;147602.0;;;-4.8;91.43
33913;BME280;20200;52.084;5.224;2022-12-18T05:01:19;147615.0;;;-4.75;91.22
33913;BME280;20200;52.084;5.224;2022-12-18T05:02:55;147587.0;;;-4.86;91.55
33913;BME280;20200;52.084;5.224;2022-12-18T05:04:32;147594.0;;;-4.83;91.69
33913;BME280;20200;52.084;5.224;2022-12-18T05:07:45;147601.0;;;-4.8;91.54
33913;BME280;20200;52.084;5.224;2022-12-18T05:09:22;147611.0;;;-4.76;91.45
33913;BME280;20200;52.084;5.224;2022-12-18T05:11:00;147621.0;;;-4.72;90.94
33913;BME280;20200;52.084;5.224;2022-12-18T05:14:13;147619.0;;;-4.73;90.82
33913;BME280;20200;52.084;5.224;2022-12-18T05:15:51;147615.0;;;-4.75;90.72
33913;BME280;20200;52.084;5.224;2022-12-18T05:17:28;147604.0;;;-4.79;90.67
33913;BME280;20200;52.084;5.224;2022-12-18T05:19:04;147601.0;;;-4.8;90.68
33913;BME280;20200;52.084;5.224;2022-12-18T05:22:17;147595.0;;;-4.83;90.71
33913;BME280;20200;52.084;5.224;2022-12-18T05:23:53;147595.0;;;-4.83;90.45
33913;BME280;20200;52.084;5.224;2022-12-18T05:25:29;147583.0;;;-4.88;90.58
33913;BME280;20200;52.084;5.224;2022-12-18T05:28:41;147591.0;;;-4.84;90.55
33913;BME280;20200;52.084;5.224;2022-12-18T05:30:18;147611.0;;;-4.76;90.27
33913;BME280;20200;52.084;5.224;2022-12-18T05:31:54;147598.0;;;-4.82;90.25
33913;BME280;20200;52.084;5.224;2022-12-18T05:35:11;147597.0;;;-4.82;90.06
33913;BME280;20200;52.084;5.224;2022-12-18T05:36:48;147603.0;;;-4.8;89.95
33913;BME280;20200;52.084;5.224;2022-12-18T05:38:25;147596.0;;;-4.82;89.91
33913;BME280;20200;52.084;5.224;2022-12-18T05:40:03;147628.0;;;-4.7;89.33
33913;BME280;20200;52.084;5.224;2022-12-18T05:43:17;147640.0;;;-4.65;88.94
33913;BME280;20200;52.084;5.224;2022-12-18T05:44:53;147623.0;;;-4.72;89.05
33913;BME280;20200;52.084;5.224;2022-12-18T05:46:30;147619.0;;;-4.73;89.27
33913;BME280;20200;52.084;5.224;2022-12-18T05:49:43;147575.0;;;-4.91;89.27
33913;BME280;20200;52.084;5.224;2022-12-18T05:51:21;147584.0;;;-4.87;89.73
33913;BME280;20200;52.084;5.224;2022-12-18T05:52:57;147584.0;;;-4.87;89.92
33913;BME280;20200;52.084;5.224;2022-12-18T05:56:12;147604.0;;;-4.79;89.69
33913;BME280;20200;52.084;5.224;2022-12-18T05:57:50;147604.0;;;-4.79;89.63
33913;BME280;20200;52.084;5.224;2022-12-18T05:59:26;147611.0;;;-4.76;89.44
33913;BME280;20200;52.084;5.224;2022-12-18T06:01:07;147604.0;;;-4.79;89.31
33913;BME280;20200;52.084;5.224;2022-12-18T06:04:23;147613.0;;;-4.76;89.31
33913;BME280;20200;52.084;5.224;2022-12-18T06:05:59;147606.0;;;-4.78;89.3
33913;BME280;20200;52.084;5.224;2022-12-18T06:07:35;147613.0;;;-4.76;89.12
33913;BME280;20200;52.084;5.224;2022-12-18T06:10:50;147601.0;;;-4.81;89.17
33913;BME280;20200;52.084;5.224;2022-12-18T06:12:27;147621.0;;;-4.72;89.04
33913;BME280;20200;52.084;5.224;2022-12-18T06:14:05;147594.0;;;-4.83;89.27
33913;BME280;20200;52.084;5.224;2022-12-18T06:15:41;147587.0;;;-4.86;89.55
33913;BME280;20200;52.084;5.224;2022-12-18T06:18:56;147599.0;;;-4.81;89.39
33913;BME280;20200;52.084;5.224;2022-12-18T06:20:32;147605.0;;;-4.79;89.27
33913;BME280;20200;52.084;5.224;2022-12-18T06:22:08;147612.0;;;-4.76;89.36
33913;BME280;20200;52.084;5.224;2022-12-18T06:25:20;147601.0;;;-4.8;89.43
33913;BME280;20200;52.084;5.224;2022-12-18T06:26:56;147621.0;;;-4.72;89.1
33913;BME280;20200;52.084;5.224;2022-12-18T06:28:33;147603.0;;;-4.8;89.16
33913;BME280;20200;52.084;5.224;2022-12-18T06:30:10;147591.0;;;-4.84;89.21
33913;BME280;20200;52.084;5.224;2022-12-18T06:33:26;147601.0;;;-4.81;89.25
33913;BME280;20200;52.084;5.224;2022-12-18T06:35:03;147621.0;;;-4.72;88.96
33913;BME280;20200;52.084;5.224;2022-12-18T06:36:40;147629.0;;;-4.69;88.81
33913;BME280;20200;52.084;5.224;2022-12-18T06:39:52;147644.0;;;-4.63;88.44
33913;BME280;20200;52.084;5.224;2022-12-18T06:41:28;147621.0;;;-4.72;88.51
33913;BME280;20200;52.084;5.224;2022-12-18T06:43:05;147619.0;;;-4.73;88.79
33913;BME280;20200;52.084;5.224;2022-12-18T06:46:18;147627.0;;;-4.7;88.5
33913;BME280;20200;52.084;5.224;2022-12-18T06:47:55;147636.0;;;-4.66;88.26
33913;BME280;20200;52.084;5.224;2022-12-18T06:49:31;147613.0;;;-4.75;88.47
33913;BME280;20200;52.084;5.224;2022-12-18T06:51:07;147621.0;;;-4.72;88.48
33913;BME280;20200;52.084;5.224;2022-12-18T06:54:20;147610.0;;;-4.77;88.61
33913;BME280;20200;52.084;5.224;2022-12-18T06:56:00;147613.0;;;-4.76;88.81
33913;BME280;20200;52.084;5.224;2022-12-18T06:57:37;147601.0;;;-4.8;89.22
33913;BME280;20200;52.084;5.224;2022-12-18T07:00:50;147609.0;;;-4.77;89.19
33913;BME280;20200;52.084;5.224;2022-12-18T07:02:27;147612.0;;;-4.76;89.26
33913;BME280;20200;52.084;5.224;2022-12-18T07:04:03;147619.0;;;-4.73;89.32
33913;BME280;20200;52.084;5.224;2022-12-18T07:07:16;147630.0;;;-4.69;89.15
33913;BME280;20200;52.084;5.224;2022-12-18T07:08:54;147613.0;;;-4.76;89.22
33913;BME280;20200;52.084;5.224;2022-12-18T07:10:31;147620.0;;;-4.73;89.25
33913;BME280;20200;52.084;5.224;2022-12-18T07:12:07;147618.0;;;-4.73;89.47
33913;BME280;20200;52.084;5.224;2022-12-18T07:15:20;147616.0;;;-4.74;89.5
33913;BME280;20200;52.084;5.224;2022-12-18T07:16:56;147608.0;;;-4.77;89.51
33913;BME280;20200;52.084;5.224;2022-12-18T07:18:33;147597.0;;;-4.82;89.82
33913;BME280;20200;52.084;5.224;2022-12-18T07:21:46;147616.0;;;-4.74;89.74
33913;BME280;20200;52.084;5.224;2022-12-18T07:23:22;147633.0;;;-4.68;89.32
33913;BME280;20200;52.084;5.224;2022-12-18T07:24:58;147640.0;;;-4.65;89.33
33913;BME280;20200;52.084;5.224;2022-12-18T07:28:11;147616.0;;;-4.74;89.82
33913;BME280;20200;52.084;5.224;2022-12-18T07:29:47;147631.0;;;-4.68;89.92
33913;BME280;20200;52.084;5.224;2022-12-18T07:31:24;147645.0;;;-4.63;89.36
33913;BME280;20200;52.084;5.224;2022-12-18T07:33:00;147651.0;;;-4.6;89.33
33913;BME280;20200;52.084;5.224;2022-12-18T07:36:13;147644.0;;;-4.63;89.62
33913;BME280;20200;52.084;5.224;2022-12-18T07:37:50;147657.0;;;-4.58;89.51
33913;BME280;20200;52.084;5.224;2022-12-18T07:39:26;147653.0;;;-4.59;89.42
33913;BME280;20200;52.084;5.224;2022-12-18T07:42:40;147675.0;;;-4.5;89.17
33913;BME280;20200;52.084;5.224;2022-12-18T07:44:17;147650.0;;;-4.61;89.31
33913;BME280;20200;52.084;5.224;2022-12-18T07:45:55;147642.0;;;-4.63;89.55
33913;BME280;20200;52.084;5.224;2022-12-18T07:49:10;147667.0;;;-4.54;89.58
33913;BME280;20200;52.084;5.224;2022-12-18T07:50:46;147679.0;;;-4.49;89.33
33913;BME280;20200;52.084;5.224;2022-12-18T07:52:22;147688.0;;;-4.45;89.32
33913;BME280;20200;52.084;5.224;2022-12-18T07:53:59;147698.0;;;-4.41;89.26
33913;BME280;20200;52.084;5.224;2022-12-18T07:57:11;147718.0;;;-4.33;89.16
33913;BME280;20200;52.084;5.224;2022-12-18T07:58:48;147727.0;;;-4.29;88.91
33913;BME280;20200;52.084;5.224;2022-12-18T08:00:24;147711.0;;;-4.36;89.07
33913;BME280;20200;52.084;5.224;2022-12-18T08:03:38;147716.0;;;-4.34;89.22
33913;BME280;20200;52.084;5.224;2022-12-18T08:05:14;147735.0;;;-4.26;89.08
33913;BME280;20200;52.084;5.224;2022-12-18T08:06:51;147753.0;;;-4.19;89.1
33913;BME280;20200;52.084;5.224;2022-12-18T08:10:05;147747.0;;;-4.21;89.03
33913;BME280;20200;52.084;5.224;2022-12-18T08:11:42;147756.0;;;-4.18;89.02
33913;BME280;20200;52.084;5.224;2022-12-18T08:13:19;147756.0;;;-4.18;89.2
33913;BME280;20200;52.084;5.224;2022-12-18T08:14:54;147761.0;;;-4.16;89.26
33913;BME280;20200;52.084;5.224;2022-12-18T08:18:07;147787.0;;;-4.05;89.21
33913;BME280;20200;52.084;5.224;2022-12-18T08:19:43;147817.0;;;-3.93;88.7
33913;BME280;20200;52.084;5.224;2022-12-18T08:21:22;147796.0;;;-4.02;88.81
33913;BME280;20200;52.084;5.224;2022-12-18T08:24:34;147801.0;;;-4.0;88.8
33913;BME280;20200;52.084;5.224;2022-12-18T08:26:11;147812.0;;;-3.95;88.76
33913;BME280;20200;52.084;5.224;2022-12-18T08:27:47;147815.0;;;-3.94;88.74
33913;BME280;20200;52.084;5.224;2022-12-18T08:29:24;147825.0;;;-3.9;88.57
33913;BME280;20200;52.084;5.224;2022-12-18T08:32:36;147808.0;;;-3.97;88.73
33913;BME280;20200;52.084;5.224;2022-12-18T08:34:11;147804.0;;;-3.98;88.68
33913;BME280;20200;52.084;5.224;2022-12-18T08:35:48;147802.0;;;-3.99;89.02
33913;BME280;20200;52.084;5.224;2022-12-18T08:39:00;147815.0;;;-3.94;88.69
33913;BME280;20200;52.084;5.224;2022-12-18T08:40:36;147836.0;;;-3.86;88.44
33913;BME280;20200;52.084;5.224;2022-12-18T08:43:48;147839.0;;;-3.84;88.34
33913;BME280;20200;52.084;5.224;2022-12-18T08:45:25;147831.0;;;-3.87;88.26
33913;BME280;20200;52.084;5.224;2022-12-18T08:47:01;147837.0;;;-3.85;88.34
33913;BME280;20200;52.084;5.224;2022-12-18T08:48:37;147859.0;;;-3.76;88.07
33913;BME280;20200;52.084;5.224;2022-12-18T08:51:54;147864.0;;;-3.74;87.91
33913;BME280;20200;52.084;5.224;2022-12-18T08:53:30;147873.0;;;-3.7;88.0
33913;BME280;20200;52.084;5.224;2022-12-18T08:55:08;147838.0;;;-3.85;87.77
33913;BME280;20200;52.084;5.224;2022-12-18T08:56:44;147879.0;;;-3.68;88.05
33913;BME280;20200;52.084;5.224;2022-12-18T08:59:57;147885.0;;;-3.66;87.93
33913;BME280;20200;52.084;5.224;2022-12-18T09:01:33;147880.0;;;-3.68;88.17
33913;BME280;20200;52.084;5.224;2022-12-18T09:03:12;147899.0;;;-3.6;88.04
33913;BME280;20200;52.084;5.224;2022-12-18T09:06:24;147905.0;;;-3.58;87.88
33913;BME280;20200;52.084;5.224;2022-12-18T09:08:00;147910.0;;;-3.56;87.97
33913;BME280;20200;52.084;5.224;2022-12-18T09:09:36;147912.0;;;-3.55;88.06
33913;BME280;20200;52.084;5.224;2022-12-18T09:12:54;147936.0;;;-3.45;87.94
33913;BME280;20200;52.084;5.224;2022-12-18T09:14:30;147955.0;;;-3.38;87.59
33913;BME280;20200;52.084;5.224;2022-12-18T09:16:06;147943.0;;;-3.42;87.54
33913;BME280;20200;52.084;5.224;2022-12-18T09:17:43;147955.0;;;-3.37;87.56
33913;BME280;20200;52.084;5.224;2022-12-18T09:20:55;147977.0;;;-3.29;87.69
33913;BME280;20200;52.084;5.224;2022-12-18T09:22:31;148001.0;;;-3.19;87.32
33913;BME280;20200;52.084;5.224;2022-12-18T09:24:12;147998.0;;;-3.2;87.08
33913;BME280;20200;52.084;5.224;2022-12-18T09:27:25;147992.0;;;-3.22;87.05
33913;BME280;20200;52.084;5.224;2022-12-18T09:29:02;147988.0;;;-3.24;87.1
33913;BME280;20200;52.084;5.224;2022-12-18T09:30:39;147991.0;;;-3.23;87.23
33913;BME280;20200;52.084;5.224;2022-12-18T09:32:16;148008.0;;;-3.16;87.09
33913;BME280;20200;52.084;5.224;2022-12-18T09:35:31;147988.0;;;-3.24;87.27
33913;BME280;20200;52.084;5.224;2022-12-18T09:37:07;147993.0;;;-3.22;87.23
33913;BME280;20200;52.084;5.224;2022-12-18T09:38:43;148020.0;;;-3.11;87.18
33913;BME280;20200;52.084;5.224;2022-12-18T09:42:01;148028.0;;;-3.08;87.04
33913;BME280;20200;52.084;5.224;2022-12-18T09:43:42;148038.0;;;-3.04;86.92
33913;BME280;20200;52.084;5.224;2022-12-18T09:45:21;148030.0;;;-3.07;86.97
33913;BME280;20200;52.084;5.224;2022-12-18T09:47:04;148083.0;;;-2.86;86.75
33913;BME280;20200;52.084;5.224;2022-12-18T09:50:30;148094.0;;;-2.81;86.75
33913;BME280;20200;52.084;5.224;2022-12-18T09:52:13;148079.0;;;-2.87;86.4
33913;BME280;20200;52.084;5.224;2022-12-18T09:53:53;148099.0;;;-2.79;86.13
33913;BME280;20200;52.084;5.224;2022-12-18T09:55:35;148136.0;;;-2.64;85.87
33913;BME280;20200;52.084;5.224;2022-12-18T09:58:57;148118.0;;;-2.72;86.08
33913;BME280;20200;52.084;5.224;2022-12-18T10:00:35;148155.0;;;-2.57;85.84
33913;BME280;20200;52.084;5.224;2022-12-18T10:02:15;148163.0;;;-2.54;85.55
33913;BME280;20200;52.084;5.224;2022-12-18T10:03:52;148163.0;;;-2.53;85.59
33913;BME280;20200;52.084;5.224;2022-12-18T10:07:27;148143.0;;;-2.62;85.67
33913;BME280;20200;52.084;5.224;2022-12-18T10:09:15;148153.0;;;-2.57;85.52
33913;BME280;20200;52.084;5.224;2022-12-18T10:11:02;148165.0;;;-2.53;85.67
33913;BME280;20200;52.084;5.224;2022-12-18T10:12:52;148170.0;;;-2.51;85.37
33913;BME280;20200;52.084;5.224;2022-12-18T10:14:36;148158.0;;;-2.55;85.38
33913;BME280;20200;52.084;5.224;2022-12-18T10:16:19;148208.0;;;-2.35;85.3
33913;BME280;20200;52.084;5.224;2022-12-18T10:20:00;148207.0;;;-2.36;84.83
33913;BME280;20200;52.084;5.224;2022-12-18T10:21:45;148210.0;;;-2.35;84.78
33913;BME280;20200;52.084;5.224;2022-12-18T10:23:28;148218.0;;;-2.31;84.93
33913;BME280;20200;52.084;5.224;2022-12-18T10:25:18;148278.0;;;-2.06;85.09
33913;BME280;20200;52.084;5.224;2022-12-18T10:26:59;148278.0;;;-2.06;84.2
33913;BME280;20200;52.084;5.224;2022-12-18T10:28:45;148255.0;;;-2.16;84.09
33913;BME280;20200;52.084;5.224;2022-12-18T10:32:01;148272.0;;;-2.1;83.98
33913;BME280;20200;52.084;5.224;2022-12-18T10:33:38;148280.0;;;-2.06;84.14
33913;BME280;20200;52.084;5.224;2022-12-18T10:35:18;148312.0;;;-1.93;84.11
33913;BME280;20200;52.084;5.224;2022-12-18T10:38:33;148322.0;;;-1.9;84.27
33913;BME280;20200;52.084;5.224;2022-12-18T10:40:11;148357.0;;;-1.75;83.83
33913;BME280;20200;52.084;5.224;2022-12-18T10:41:49;148362.0;;;-1.73;83.43
33913;BME280;20200;52.084;5.224;2022-12-18T10:43:27;148393.0;;;-1.61;83.33
33913;BME280;20200;52.084;5.224;2022-12-18T10:46:52;148383.0;;;-1.65;82.99
33913;BME280;20200;52.084;5.224;2022-12-18T10:48:30;148374.0;;;-1.68;83.06
33913;BME280;20200;52.084;5.224;2022-12-18T10:50:19;148354.0;;;-1.77;83.06
33913;BME280;20200;52.084;5.224;2022-12-18T10:52:05;148383.0;;;-1.65;82.91
33913;BME280;20200;52.084;5.224;2022-12-18T10:55:32;148410.0;;;-1.54;82.64
33913;BME280;20200;52.084;5.224;2022-12-18T10:57:29;148426.0;;;-1.48;82.03
33913;BME280;20200;52.084;5.224;2022-12-18T10:59:09;148430.0;;;-1.46;82.0
33913;BME280;20200;52.084;5.224;2022-12-18T11:01:02;148448.0;;;-1.39;81.67
33913;BME280;20200;52.084;5.224;2022-12-18T11:02:39;148487.0;;;-1.23;81.78
33913;BME280;20200;52.084;5.224;2022-12-18T11:04:19;148504.0;;;-1.15;81.27
33913;BME280;20200;52.084;5.224;2022-12-18T11:07:47;148506.0;;;-1.15;80.61